createdAt,value
2023-03-17T00:01:51.493Z,2.35
2023-03-17T00:04:19.381Z,2.90
2023-03-17T00:06:46.596Z,2.72
2023-03-17T00:09:14.857Z,2.67
2023-03-17T00:11:42.245Z,2.22
2023-03-17T00:14:09.637Z,2.40
2023-03-17T00:16:43.877Z,2.70
2023-03-17T00:19:25.878Z,2.22
2023-03-17T00:21:53.457Z,2.38
2023-03-17T00:24:20.258Z,2.35
2023-03-17T00:26:47.240Z,2.55
2023-03-17T00:29:16.203Z,2.30
2023-03-17T00:31:45.203Z,2.33
2023-03-17T00:34:14.553Z,2.67
2023-03-17T00:36:42.520Z,2.17
2023-03-17T00:41:39.846Z,2.65
2023-03-17T00:44:06.635Z,2.60
2023-03-17T00:46:38.032Z,2.55
2023-03-17T00:51:45.129Z,2.83
2023-03-17T00:54:12.667Z,2.40
2023-03-17T00:56:41.627Z,2.03
2023-03-17T00:59:18.208Z,2.72
2023-03-17T01:01:46.301Z,2.13
2023-03-17T01:04:13.677Z,2.30
2023-03-17T01:06:40.985Z,2.63
2023-03-17T01:09:08.255Z,2.22
2023-03-17T01:11:36.563Z,2.40
2023-03-17T01:14:03.561Z,2.08
2023-03-17T01:16:30.492Z,2.42
2023-03-17T01:18:57.401Z,2.45
2023-03-17T01:21:24.410Z,2.10
2023-03-17T01:23:51.130Z,2.65
2023-03-17T01:26:18.092Z,2.60
2023-03-17T01:28:45.406Z,2.55
2023-03-17T01:31:12.648Z,2.10
2023-03-17T01:33:39.834Z,2.13
2023-03-17T01:36:06.927Z,2.20
2023-03-17T01:38:34.022Z,2.40
2023-03-17T01:41:01.315Z,2.15
2023-03-17T01:43:29.713Z,2.50
2023-03-17T01:46:16.120Z,2.70
2023-03-17T01:48:43.019Z,2.53
2023-03-17T01:51:12.535Z,2.38
2023-03-17T01:53:39.809Z,2.28
2023-03-17T01:56:07.996Z,2.38
2023-03-17T01:58:35.415Z,2.60
2023-03-17T02:01:02.234Z,2.40
2023-03-17T02:03:30.008Z,2.25
2023-03-17T02:05:57.247Z,2.42
2023-03-17T02:08:24.071Z,2.67
2023-03-17T02:10:52.540Z,2.40
2023-03-17T02:13:19.419Z,2.53
2023-03-17T02:15:52.987Z,2.55
2023-03-17T02:18:23.840Z,2.58
2023-03-17T02:20:59.086Z,2.15
2023-03-17T02:23:26.249Z,2.60
2023-03-17T02:25:54.001Z,2.17
2023-03-17T02:28:26.051Z,2.10
2023-03-17T02:30:52.976Z,2.47
2023-03-17T02:33:19.887Z,2.13
2023-03-17T02:35:47.066Z,2.75
2023-03-17T02:38:16.146Z,2.15
2023-03-17T02:40:42.909Z,2.60
2023-03-17T02:43:11.056Z,2.53
2023-03-17T02:45:38.064Z,2.45
2023-03-17T02:48:05.363Z,2.58
2023-03-17T02:50:32.993Z,2.40
2023-03-17T02:53:00.254Z,2.50
2023-03-17T02:55:27.260Z,2.70
2023-03-17T02:57:54.020Z,2.45
2023-03-17T03:00:21.670Z,1.80
2023-03-17T03:02:48.469Z,2.25
2023-03-17T03:05:15.239Z,2.28
2023-03-17T03:07:42.485Z,2.45
2023-03-17T03:10:09.916Z,2.13
2023-03-17T03:12:36.787Z,1.92
2023-03-17T03:15:03.672Z,2.40
2023-03-17T03:17:30.620Z,2.63
2023-03-17T03:19:58.057Z,2.50
2023-03-17T03:22:24.873Z,2.55
2023-03-17T03:24:51.627Z,2.08
2023-03-17T03:27:18.475Z,2.33
2023-03-17T03:29:45.399Z,2.17
2023-03-17T03:32:12.240Z,2.40
2023-03-17T03:34:39.005Z,2.22
2023-03-17T03:37:06.833Z,2.35
2023-03-17T03:39:33.704Z,2.22
2023-03-17T03:42:00.755Z,2.95
2023-03-17T03:44:27.508Z,2.60
2023-03-17T03:46:54.264Z,2.05
2023-03-17T03:49:21.308Z,2.35
2023-03-17T03:51:48.116Z,1.92
2023-03-17T03:54:15.475Z,2.22
2023-03-17T03:56:42.219Z,2.38
2023-03-17T03:59:09.831Z,2.55
2023-03-17T04:01:37.262Z,2.33
2023-03-17T04:04:04.172Z,2.47
2023-03-17T04:06:31.072Z,2.50
2023-03-17T04:08:58.435Z,2.60
2023-03-17T04:11:29.177Z,2.22
2023-03-17T04:13:56.225Z,2.17
2023-03-17T04:16:23.165Z,2.30
2023-03-17T04:18:49.941Z,2.20
2023-03-17T04:21:19.026Z,2.72
2023-03-17T04:23:46.106Z,2.33
2023-03-17T04:26:13.748Z,2.05
2023-03-17T04:28:41.173Z,2.10
2023-03-17T04:31:09.597Z,2.50
2023-03-17T04:33:36.373Z,2.30
2023-03-17T04:36:04.314Z,2.15
2023-03-17T04:38:31.132Z,2.50
2023-03-17T04:40:58.113Z,2.22
2023-03-17T04:43:25.033Z,2.28
2023-03-17T04:45:52.257Z,2.10
2023-03-17T04:48:19.091Z,2.50
2023-03-17T04:50:47.897Z,2.50
2023-03-17T04:53:14.768Z,2.65
2023-03-17T04:55:42.189Z,2.60
2023-03-17T04:58:10.332Z,2.92
2023-03-17T05:00:39.037Z,2.40
2023-03-17T05:03:24.101Z,2.65
2023-03-17T05:05:53.834Z,2.95
2023-03-17T05:08:20.775Z,3.53
2023-03-17T05:10:47.530Z,3.75
2023-03-17T05:13:14.540Z,3.63
2023-03-17T05:15:44.433Z,3.47
2023-03-17T05:18:11.225Z,3.40
2023-03-17T05:20:38.021Z,3.85
2023-03-17T05:23:05.057Z,3.50
2023-03-17T05:25:31.808Z,2.80
2023-03-17T05:27:58.817Z,2.67
2023-03-17T05:30:25.856Z,2.70
2023-03-17T05:32:52.674Z,2.80
2023-03-17T05:35:19.460Z,2.70
2023-03-17T05:37:47.051Z,2.30
2023-03-17T05:40:14.732Z,2.60
2023-03-17T05:42:42.071Z,2.20
2023-03-17T05:45:09.620Z,2.13
2023-03-17T05:47:36.347Z,2.67
2023-03-17T05:50:04.750Z,2.13
2023-03-17T05:52:31.728Z,2.72
2023-03-17T05:54:58.775Z,2.60
2023-03-17T05:57:26.350Z,2.15
2023-03-17T05:59:53.222Z,2.30
2023-03-17T06:02:22.600Z,2.35
2023-03-17T06:04:49.470Z,2.33
2023-03-17T06:07:16.449Z,2.50
2023-03-17T06:09:49.195Z,2.55
2023-03-17T06:12:16.311Z,2.42
2023-03-17T06:14:43.002Z,2.42
2023-03-17T06:17:09.939Z,2.38
2023-03-17T06:19:36.705Z,2.58
2023-03-17T06:22:03.448Z,2.08
2023-03-17T06:24:30.331Z,2.20
2023-03-17T06:26:57.215Z,2.60
2023-03-17T06:29:24.805Z,2.17
2023-03-17T06:31:52.364Z,2.25
2023-03-17T06:34:19.574Z,2.10
2023-03-17T06:36:46.410Z,2.13
2023-03-17T06:39:13.437Z,1.83
2023-03-17T06:41:40.675Z,2.05
2023-03-17T06:44:08.651Z,2.17
2023-03-17T06:46:36.066Z,1.80
2023-03-17T06:49:03.490Z,2.17
2023-03-17T06:51:31.117Z,2.00
2023-03-17T06:53:57.922Z,2.20
2023-03-17T06:56:30.273Z,2.10
2023-03-17T06:58:57.986Z,2.40
2023-03-17T07:01:25.895Z,2.13
2023-03-17T07:03:52.985Z,2.30
2023-03-17T07:06:19.818Z,2.45
2023-03-17T07:08:47.554Z,2.55
2023-03-17T07:11:14.875Z,2.55
2023-03-17T07:13:41.931Z,2.33
2023-03-17T07:16:11.297Z,2.60
2023-03-17T07:18:39.640Z,2.47
2023-03-17T07:21:07.249Z,2.67
2023-03-17T07:23:34.003Z,2.33
2023-03-17T07:26:01.484Z,2.40
2023-03-17T07:28:28.349Z,2.50
2023-03-17T07:30:57.876Z,2.35
2023-03-17T07:33:24.833Z,2.38
2023-03-17T07:35:52.142Z,2.08
2023-03-17T07:38:19.291Z,2.50
2023-03-17T07:40:47.719Z,2.45
2023-03-17T07:43:15.271Z,2.45
2023-03-17T07:45:42.482Z,2.60
2023-03-17T07:48:09.640Z,2.75
2023-03-17T07:50:36.916Z,2.72
2023-03-17T07:53:04.750Z,2.38
2023-03-17T07:55:32.688Z,2.53
2023-03-17T07:58:00.039Z,2.47
2023-03-17T08:00:29.117Z,2.50
2023-03-17T08:03:09.277Z,2.53
2023-03-17T08:05:36.580Z,2.55
2023-03-17T08:08:05.441Z,2.67
2023-03-17T08:10:32.643Z,2.70
2023-03-17T08:12:59.807Z,2.92
2023-03-17T08:15:26.661Z,2.70
2023-03-17T08:17:53.866Z,2.70
2023-03-17T08:20:21.897Z,2.72
2023-03-17T08:22:48.671Z,2.63
2023-03-17T08:25:15.580Z,2.55
2023-03-17T08:27:42.665Z,2.40
2023-03-17T08:30:09.750Z,2.72
2023-03-17T08:32:36.976Z,2.90
2023-03-17T08:35:06.359Z,3.10
2023-03-17T08:37:33.279Z,3.65
2023-03-17T08:40:01.173Z,4.53
2023-03-17T08:42:27.991Z,3.70
2023-03-17T08:44:54.807Z,3.65
2023-03-17T08:47:21.828Z,3.10
2023-03-17T08:49:48.717Z,3.05
2023-03-17T08:52:16.293Z,2.83
2023-03-17T08:54:43.242Z,2.75
2023-03-17T08:57:10.395Z,2.47
2023-03-17T08:59:37.263Z,2.60
2023-03-17T09:02:04.062Z,2.90
2023-03-17T09:04:30.944Z,2.55
2023-03-17T09:07:05.777Z,2.67
2023-03-17T09:09:35.240Z,2.33
2023-03-17T09:12:03.196Z,2.33
2023-03-17T09:14:35.281Z,2.28
2023-03-17T09:17:09.755Z,2.08
2023-03-17T09:19:36.563Z,2.28
2023-03-17T09:22:03.346Z,2.63
2023-03-17T09:24:30.037Z,2.20
2023-03-17T09:26:59.877Z,2.70
2023-03-17T09:29:27.295Z,2.30
2023-03-17T09:31:57.084Z,2.53
2023-03-17T09:34:25.181Z,2.30
2023-03-17T09:36:55.291Z,2.45
2023-03-17T09:39:23.068Z,2.55
2023-03-17T09:41:57.332Z,3.13
2023-03-17T09:44:28.698Z,2.60
2023-03-17T09:46:58.570Z,2.95
2023-03-17T09:49:29.929Z,2.60
2023-03-17T09:51:57.015Z,2.58
2023-03-17T09:54:31.451Z,2.47
2023-03-17T09:57:10.959Z,2.78
2023-03-17T09:59:43.888Z,2.65
2023-03-17T10:02:23.150Z,2.42
2023-03-17T10:04:50.317Z,2.20
2023-03-17T10:07:20.734Z,2.67
2023-03-17T10:09:54.379Z,3.03
2023-03-17T10:12:56.701Z,2.50
2023-03-17T10:15:31.052Z,2.72
2023-03-17T10:17:58.763Z,3.00
2023-03-17T10:20:27.183Z,2.75
2023-03-17T10:22:58.250Z,2.72
2023-03-17T10:25:29.766Z,3.13
2023-03-17T10:28:08.781Z,3.13
2023-03-17T10:30:36.403Z,3.22
2023-03-17T10:33:07.066Z,3.47
2023-03-17T10:35:36.472Z,3.40
2023-03-17T10:38:17.844Z,3.40
2023-03-17T10:40:47.809Z,3.10
2023-03-17T10:43:20.670Z,3.50
2023-03-17T10:45:57.788Z,3.10
2023-03-17T10:48:25.105Z,3.83
2023-03-17T10:50:52.992Z,3.50
2023-03-17T10:53:28.229Z,3.47
2023-03-17T10:56:20.416Z,3.33
2023-03-17T10:58:49.187Z,3.90
2023-03-17T11:01:22.777Z,3.90
2023-03-17T11:03:49.911Z,3.88
2023-03-17T11:06:19.298Z,4.00
2023-03-17T11:08:46.727Z,3.88
2023-03-17T11:11:22.607Z,3.92
2023-03-17T11:13:49.452Z,3.97
2023-03-17T11:16:23.732Z,3.58
2023-03-17T11:18:58.289Z,4.00
2023-03-17T11:21:28.012Z,3.90
2023-03-17T11:24:14.867Z,3.90
2023-03-17T11:26:59.367Z,3.92
2023-03-17T11:29:32.626Z,3.90
2023-03-17T11:32:05.695Z,3.97
2023-03-17T11:34:35.795Z,4.60
2023-03-17T11:37:10.741Z,4.18
2023-03-17T11:39:49.934Z,4.30
2023-03-17T11:42:37.199Z,3.90
2023-03-17T11:45:23.851Z,4.13
2023-03-17T11:48:09.519Z,3.97
2023-03-17T11:50:40.954Z,4.32
2023-03-17T11:53:22.913Z,3.88
2023-03-17T11:56:16.065Z,3.95
2023-03-17T11:58:47.055Z,4.32
2023-03-17T12:01:21.606Z,4.80
2023-03-17T12:03:52.818Z,4.55
2023-03-17T12:06:28.892Z,4.70
2023-03-17T12:09:03.296Z,4.22
2023-03-17T12:11:31.833Z,4.07
2023-03-17T12:14:07.739Z,4.43
2023-03-17T12:16:43.919Z,3.63
2023-03-17T12:19:14.873Z,4.30
2023-03-17T12:21:42.005Z,4.85
2023-03-17T12:24:24.008Z,3.95
2023-03-17T12:26:51.296Z,4.22
2023-03-17T12:29:25.617Z,3.97
2023-03-17T12:31:55.961Z,4.15
2023-03-17T12:34:26.252Z,4.18
2023-03-17T12:36:53.645Z,3.78
2023-03-17T12:39:29.432Z,4.22
2023-03-17T12:42:15.251Z,4.45
2023-03-17T12:44:51.201Z,4.20
2023-03-17T12:47:27.059Z,4.32
2023-03-17T12:49:57.051Z,4.22
2023-03-17T12:52:23.816Z,4.22
2023-03-17T12:54:52.027Z,4.15
2023-03-17T12:57:20.905Z,4.20
2023-03-17T12:59:57.855Z,4.68
2023-03-17T13:02:27.830Z,4.22
2023-03-17T13:05:00.959Z,3.97
2023-03-17T13:07:31.558Z,4.38
2023-03-17T13:10:02.686Z,4.40
2023-03-17T13:12:44.928Z,3.88
2023-03-17T13:15:28.264Z,4.57
2023-03-17T13:18:22.415Z,4.07
2023-03-17T13:21:01.155Z,4.13
2023-03-17T13:23:34.238Z,4.15
2023-03-17T13:26:01.088Z,4.07
2023-03-17T13:28:41.412Z,4.50
2023-03-17T13:31:11.422Z,4.57
2023-03-17T13:33:46.153Z,4.35
2023-03-17T13:36:18.972Z,4.55
2023-03-17T13:39:05.133Z,4.60
2023-03-17T13:41:42.212Z,4.10
2023-03-17T13:44:09.019Z,4.03
2023-03-17T13:46:40.015Z,4.32
2023-03-17T13:49:36.883Z,4.32
2023-03-17T13:52:14.111Z,4.47
2023-03-17T13:54:42.044Z,4.57
2023-03-17T13:57:21.348Z,4.20
2023-03-17T13:59:55.455Z,4.65
2023-03-17T14:02:23.883Z,4.13
2023-03-17T14:04:56.252Z,4.45
2023-03-17T14:07:24.612Z,4.45
2023-03-17T14:09:53.375Z,4.65
2023-03-17T14:12:42.716Z,4.65
2023-03-17T14:15:17.375Z,4.50
2023-03-17T14:17:46.731Z,4.68
2023-03-17T14:20:13.621Z,4.55
2023-03-17T14:22:44.947Z,4.60
2023-03-17T14:25:19.680Z,5.15
2023-03-17T14:27:48.217Z,4.53
2023-03-17T14:30:22.685Z,4.47
2023-03-17T14:33:08.249Z,4.38
2023-03-17T14:35:37.597Z,4.40
2023-03-17T14:38:13.528Z,4.22
2023-03-17T14:40:40.676Z,4.20
2023-03-17T14:43:07.721Z,3.92
2023-03-17T14:46:13.621Z,3.97
2023-03-17T14:48:42.456Z,4.70
2023-03-17T14:51:18.496Z,3.90
2023-03-17T14:53:46.621Z,3.85
2023-03-17T14:56:13.810Z,4.55
2023-03-17T14:58:42.073Z,4.57
2023-03-17T15:01:20.107Z,4.03
2023-03-17T15:03:57.474Z,4.38
2023-03-17T15:06:28.302Z,4.50
2023-03-17T15:08:57.271Z,3.95
2023-03-17T15:11:28.872Z,4.10
2023-03-17T15:14:03.478Z,4.65
2023-03-17T15:16:33.615Z,4.85
2023-03-17T15:19:05.421Z,11.75
2023-03-17T15:21:39.831Z,7.07
2023-03-17T15:24:23.296Z,5.00
2023-03-17T15:26:50.530Z,4.57
2023-03-17T15:29:17.358Z,4.45
2023-03-17T15:31:44.462Z,5.15
2023-03-17T15:34:13.526Z,4.93
2023-03-17T15:36:40.921Z,4.70
2023-03-17T15:39:09.536Z,4.00
2023-03-17T15:41:36.539Z,5.03
2023-03-17T15:44:05.175Z,6.82
2023-03-17T15:46:33.700Z,5.65
2023-03-17T15:49:01.863Z,5.63
2023-03-17T15:51:28.677Z,5.18
2023-03-17T15:53:55.494Z,4.80
2023-03-17T15:56:22.517Z,5.03
2023-03-17T15:58:52.383Z,4.88
2023-03-17T16:01:19.786Z,4.90
2023-03-17T16:03:47.828Z,4.75
2023-03-17T16:06:16.208Z,4.82
2023-03-17T16:08:43.330Z,4.90
2023-03-17T16:11:15.239Z,4.60
2023-03-17T16:13:42.325Z,5.00
2023-03-17T16:16:15.926Z,4.60
2023-03-17T16:18:47.133Z,5.03
2023-03-17T16:21:14.026Z,4.30
2023-03-17T16:23:41.123Z,5.60
2023-03-17T16:26:15.617Z,4.90
2023-03-17T16:28:45.392Z,4.90
2023-03-17T16:31:17.451Z,5.53
2023-03-17T16:33:44.280Z,4.40
2023-03-17T16:36:13.959Z,4.78
2023-03-17T16:38:40.976Z,4.60
2023-03-17T16:41:10.038Z,4.88
2023-03-17T16:43:37.964Z,5.25
2023-03-17T16:46:06.505Z,4.47
2023-03-17T16:48:33.506Z,4.55
2023-03-17T16:51:00.360Z,4.57
2023-03-17T16:53:27.142Z,4.30
2023-03-17T16:55:54.552Z,5.22
2023-03-17T16:58:23.398Z,5.35
2023-03-17T17:00:51.959Z,4.95
2023-03-17T17:03:18.746Z,5.35
2023-03-17T17:05:45.705Z,5.53
2023-03-17T17:08:12.761Z,7.78
2023-03-17T17:10:39.971Z,6.25
2023-03-17T17:13:07.878Z,9.45
2023-03-17T17:15:35.241Z,10.45
2023-03-17T17:18:13.140Z,6.97
2023-03-17T17:20:40.789Z,5.95
2023-03-17T17:23:10.951Z,6.47
2023-03-17T17:25:37.906Z,6.25
2023-03-17T17:28:04.863Z,6.28
2023-03-17T17:30:32.106Z,6.30
2023-03-17T17:32:59.797Z,7.38
2023-03-17T17:35:27.809Z,6.57
2023-03-17T17:37:54.654Z,6.90
2023-03-17T17:40:24.473Z,7.28
2023-03-17T17:42:52.036Z,7.25
2023-03-17T17:45:20.265Z,7.63
2023-03-17T17:47:47.494Z,6.63
2023-03-17T17:50:21.335Z,6.90
2023-03-17T17:52:48.309Z,7.18
2023-03-17T17:55:15.276Z,6.55
2023-03-17T17:57:43.110Z,7.18
2023-03-17T18:00:12.791Z,6.75
2023-03-17T18:02:39.681Z,7.07
2023-03-17T18:05:08.675Z,6.88
2023-03-17T18:07:36.004Z,6.32
2023-03-17T18:10:03.558Z,5.90
2023-03-17T18:12:30.282Z,5.80
2023-03-17T18:14:57.254Z,5.47
2023-03-17T18:17:24.648Z,3.90
2023-03-17T18:19:54.791Z,4.10
2023-03-17T18:22:21.631Z,3.53
2023-03-17T18:24:49.227Z,3.80
2023-03-17T18:27:16.925Z,4.10
2023-03-17T18:29:43.975Z,4.10
2023-03-17T18:32:11.599Z,3.80
2023-03-17T18:34:43.388Z,3.92
2023-03-17T18:37:12.465Z,3.15
2023-03-17T18:39:40.964Z,3.58
2023-03-17T18:42:08.275Z,3.63
2023-03-17T18:44:35.135Z,4.47
2023-03-17T18:47:02.521Z,5.35
2023-03-17T18:49:29.361Z,6.20
2023-03-17T18:51:56.772Z,7.03
2023-03-17T18:54:23.684Z,6.53
2023-03-17T18:56:51.650Z,7.38
2023-03-17T18:59:18.498Z,7.28
2023-03-17T19:01:45.397Z,7.47
2023-03-17T19:04:12.600Z,7.85
2023-03-17T19:06:39.774Z,8.80
2023-03-17T19:09:06.875Z,9.00
2023-03-17T19:11:33.740Z,8.55
2023-03-17T19:14:00.800Z,7.90
2023-03-17T19:16:29.094Z,7.38
2023-03-17T19:18:56.528Z,7.07
2023-03-17T19:21:23.708Z,7.50
2023-03-17T19:23:51.036Z,7.07
2023-03-17T19:26:18.318Z,6.45
2023-03-17T19:28:45.127Z,6.70
2023-03-17T19:31:12.208Z,6.57
2023-03-17T19:33:39.620Z,6.57
2023-03-17T19:36:08.008Z,6.70
2023-03-17T19:38:34.928Z,6.05
2023-03-17T19:41:02.559Z,6.60
2023-03-17T19:43:40.414Z,7.10
2023-03-17T19:46:09.171Z,6.13
2023-03-17T19:48:37.450Z,6.10
2023-03-17T19:51:04.595Z,6.10
2023-03-17T19:53:31.412Z,5.40
2023-03-17T19:55:58.224Z,5.75
2023-03-17T19:58:25.451Z,5.63
2023-03-17T20:00:53.060Z,6.43
2023-03-17T20:03:19.909Z,6.38
2023-03-17T20:05:46.652Z,6.63
2023-03-17T20:08:14.673Z,7.18
2023-03-17T20:10:41.645Z,6.65
2023-03-17T20:13:08.759Z,6.90
2023-03-17T20:15:36.788Z,7.45
2023-03-17T20:18:04.098Z,7.13
2023-03-17T20:20:31.443Z,7.93
2023-03-17T20:22:58.330Z,7.47
2023-03-17T20:25:25.094Z,8.15
2023-03-17T20:27:53.387Z,7.85
2023-03-17T20:30:20.422Z,7.88
2023-03-17T20:32:47.216Z,7.80
2023-03-17T20:35:14.062Z,7.40
2023-03-17T20:37:42.149Z,7.43
2023-03-17T20:40:10.794Z,7.50
2023-03-17T20:42:37.680Z,7.50
2023-03-17T20:45:06.320Z,7.93
2023-03-17T20:47:36.834Z,6.68
2023-03-17T20:50:06.274Z,7.53
2023-03-17T20:52:33.124Z,7.60
2023-03-17T20:55:00.522Z,7.57
2023-03-17T20:57:27.738Z,6.78
2023-03-17T20:59:56.154Z,7.03
2023-03-17T21:02:24.056Z,7.07
2023-03-17T21:04:50.915Z,6.85
2023-03-17T21:07:18.953Z,6.40
2023-03-17T21:09:46.700Z,6.35
2023-03-17T21:12:18.361Z,6.78
2023-03-17T21:14:46.678Z,6.65
2023-03-17T21:17:14.036Z,6.95
2023-03-17T21:19:41.738Z,7.20
2023-03-17T21:22:08.541Z,7.13
2023-03-17T21:24:36.966Z,6.78
2023-03-17T21:27:05.570Z,6.80
2023-03-17T21:29:33.570Z,7.20
2023-03-17T21:32:01.316Z,7.53
2023-03-17T21:34:29.001Z,6.93
2023-03-17T21:36:57.372Z,7.10
2023-03-17T21:39:24.794Z,7.10
2023-03-17T21:41:52.221Z,7.07
2023-03-17T21:44:19.336Z,8.32
2023-03-17T21:46:47.868Z,7.60
2023-03-17T21:49:16.332Z,8.25
2023-03-17T21:51:44.346Z,7.35
2023-03-17T21:54:11.517Z,7.43
2023-03-17T21:56:39.692Z,7.10
2023-03-17T21:59:07.321Z,7.63
2023-03-17T22:01:34.585Z,7.57
2023-03-17T22:04:01.458Z,8.52
2023-03-17T22:06:29.547Z,8.18
2023-03-17T22:08:56.398Z,8.30
2023-03-17T22:11:23.263Z,8.50
2023-03-17T22:13:50.720Z,8.90
2023-03-17T22:16:18.516Z,8.18
2023-03-17T22:18:46.147Z,8.57
2023-03-17T22:21:13.203Z,9.18
2023-03-17T22:23:42.215Z,8.52
2023-03-17T22:26:13.394Z,9.27
2023-03-17T22:28:41.360Z,9.05
2023-03-17T22:31:14.319Z,9.43
2023-03-17T22:33:41.659Z,9.30
2023-03-17T22:36:08.986Z,9.07
2023-03-17T22:38:38.949Z,10.13
2023-03-17T22:41:08.080Z,9.93
2023-03-17T22:43:35.967Z,9.40
2023-03-17T22:46:03.215Z,9.65
2023-03-17T22:48:32.328Z,9.52
2023-03-17T22:51:02.709Z,9.73
2023-03-17T22:53:29.642Z,10.32
2023-03-17T22:55:56.436Z,10.10
2023-03-17T22:58:23.714Z,9.73
2023-03-17T23:00:50.551Z,10.13
2023-03-17T23:03:17.742Z,10.00
2023-03-17T23:05:45.841Z,10.15
2023-03-17T23:08:12.810Z,10.07
2023-03-17T23:10:40.529Z,10.50
2023-03-17T23:13:07.788Z,11.00
2023-03-17T23:15:36.000Z,10.63
2023-03-17T23:18:02.803Z,10.95
2023-03-17T23:20:30.416Z,10.15
2023-03-17T23:22:57.719Z,12.25
2023-03-17T23:25:24.820Z,11.75
2023-03-17T23:27:51.758Z,11.35
2023-03-17T23:30:18.775Z,11.48
2023-03-17T23:32:45.666Z,11.68
2023-03-17T23:35:13.669Z,11.43
2023-03-17T23:37:41.429Z,11.63
2023-03-17T23:40:09.693Z,11.90
2023-03-17T23:42:36.529Z,12.07
2023-03-17T23:45:04.019Z,11.23
2023-03-17T23:47:31.048Z,12.32
2023-03-17T23:49:57.917Z,11.80
2023-03-17T23:52:24.882Z,11.20
2023-03-17T23:54:52.219Z,12.00
2023-03-17T23:57:19.353Z,11.68
2023-03-17T23:59:46.290Z,12.10
